Suvarnabhumi Airport
VTBS : now visible

Airfield :











YOU CAN JOIN US ON...

 
LOGIN :

Register | Disclaimer

   EN    FR    IT 

 









Legend :    VFR   Marginal VFR   IFR   Intensive IFR   Very Intensive IFR
Visi :
Ceiling :
>= 8 km
>= 3000ft
5 to 8 km
1000 to 3000 ft
1500m to 5 km
500 to 1000 ft
800 to 1500m
200 to 500 ft
< 800m
< 200 ft
Symbols :   Thunderstorms  Fog  Heavy snow  Heavy precipitations  Wind > 20 kt






- Airport Elevation : 5 ft
- IATA code : BKK


VTBS - Suvarnabhumi

CURRENT METAR :
  • 250030Z VRB02KT 9000 -RA FEW008 BKN030 BKN100 26/24 Q1008 NOSIG

EXPIRED METARs :
  • 242330Z VRB02KT 9000 FEW020 BKN030 BKN100 26/24 Q1007 NOSIG
  • 242300Z 06002KT 9999 -RA FEW020 SCT030 BKN100 26/24 Q1006 NOSIG
  • 242230Z 10002KT 9999 -RA FEW020 SCT035 BKN100 26/23 Q1006 NOSIG

TAF TAF VTBS
Valid from the 25 at 00:00 until the 26 at 06:00 UTC


242300Z 2500/2606 11005KT 9999 FEW020 SCT040
TEMPO 2505/2509 VRB15KT 3000 TSRA FEW018CB SCT030 BKN100
BECMG 2509/2511 18005KT
TEMPO 2516/2520 VRB10G25KT 3000 TSRA FEW018CB SCT030 BKN100
BECMG 2520/2522 34005KT
VTBB FIR / Asia



MET'MAP, your aeronautical weather chart ! - Copyright ORBIFLY December 2007 - Disclaimer

ORBIFLY MET'MAP TEAM :

Programming & Development : Alexandra Zaïnal
Original concept : Baudouin d'Aumeries
Technical & hardware support : Manuel Goepfert
Assistance : Marc-Olivier Méhu




SOURCES & CREDITS :

   NOAA       Earth
Advisory